sensor_id;sensor_type;location;lat;lon;timestamp;P1;durP1;ratioP1;P2;durP2;ratioP2
77018;SDS011;66044;53.142;17.962;2023-11-19T00:00:59;18.40;;;10.10;;
77018;SDS011;66044;53.142;17.962;2023-11-19T00:03:46;18.00;;;9.20;;
77018;SDS011;66044;53.142;17.962;2023-11-19T00:06:12;19.30;;;9.70;;
77018;SDS011;66044;53.142;17.962;2023-11-19T00:08:39;16.60;;;8.60;;
77018;SDS011;66044;53.142;17.962;2023-11-19T00:11:06;20.10;;;9.80;;
77018;SDS011;66044;53.142;17.962;2023-11-19T00:13:32;20.60;;;10.50;;
77018;SDS011;66044;53.142;17.962;2023-11-19T00:15:58;20.90;;;11.10;;
77018;SDS011;66044;53.142;17.962;2023-11-19T00:18:25;21.00;;;10.50;;
77018;SDS011;66044;53.142;17.962;2023-11-19T00:20:51;23.00;;;11.30;;
77018;SDS011;66044;53.142;17.962;2023-11-19T00:23:18;22.40;;;10.90;;
77018;SDS011;66044;53.142;17.962;2023-11-19T00:25:44;22.00;;;10.50;;
77018;SDS011;66044;53.142;17.962;2023-11-19T00:28:10;23.80;;;11.40;;
77018;SDS011;66044;53.142;17.962;2023-11-19T00:30:37;25.70;;;11.80;;
77018;SDS011;66044;53.142;17.962;2023-11-19T00:33:03;21.50;;;11.50;;
77018;SDS011;66044;53.142;17.962;2023-11-19T00:35:31;24.70;;;12.00;;
77018;SDS011;66044;53.142;17.962;2023-11-19T00:37:58;27.50;;;13.00;;
77018;SDS011;66044;53.142;17.962;2023-11-19T00:40:24;26.90;;;11.50;;
77018;SDS011;66044;53.142;17.962;2023-11-19T00:42:51;26.50;;;12.20;;
77018;SDS011;66044;53.142;17.962;2023-11-19T00:45:17;21.20;;;11.00;;
77018;SDS011;66044;53.142;17.962;2023-11-19T00:47:45;24.80;;;11.40;;
77018;SDS011;66044;53.142;17.962;2023-11-19T00:50:11;23.50;;;10.80;;
77018;SDS011;66044;53.142;17.962;2023-11-19T00:52:39;20.40;;;8.80;;
77018;SDS011;66044;53.142;17.962;2023-11-19T00:55:05;22.80;;;10.70;;
77018;SDS011;66044;53.142;17.962;2023-11-19T00:57:33;21.40;;;10.80;;
77018;SDS011;66044;53.142;17.962;2023-11-19T00:59:59;20.50;;;10.50;;
77018;SDS011;66044;53.142;17.962;2023-11-19T01:02:26;22.70;;;10.80;;
77018;SDS011;66044;53.142;17.962;2023-11-19T01:04:52;21.90;;;10.00;;
77018;SDS011;66044;53.142;17.962;2023-11-19T01:07:19;29.50;;;14.80;;
77018;SDS011;66044;53.142;17.962;2023-11-19T01:09:45;22.20;;;11.00;;
77018;SDS011;66044;53.142;17.962;2023-11-19T01:12:12;22.10;;;11.10;;
77018;SDS011;66044;53.142;17.962;2023-11-19T01:14:38;25.80;;;12.50;;
77018;SDS011;66044;53.142;17.962;2023-11-19T01:17:05;23.60;;;11.80;;
77018;SDS011;66044;53.142;17.962;2023-11-19T01:19:32;25.10;;;12.30;;
77018;SDS011;66044;53.142;17.962;2023-11-19T01:21:58;23.20;;;12.80;;
77018;SDS011;66044;53.142;17.962;2023-11-19T01:27:12;28.40;;;13.30;;
77018;SDS011;66044;53.142;17.962;2023-11-19T01:29:38;24.00;;;13.20;;
77018;SDS011;66044;53.142;17.962;2023-11-19T01:32:05;23.60;;;12.30;;
77018;SDS011;66044;53.142;17.962;2023-11-19T01:34:32;24.70;;;11.70;;
77018;SDS011;66044;53.142;17.962;2023-11-19T01:36:59;27.20;;;14.40;;
77018;SDS011;66044;53.142;17.962;2023-11-19T01:39:25;32.60;;;15.60;;
77018;SDS011;66044;53.142;17.962;2023-11-19T01:41:52;32.00;;;15.60;;
77018;SDS011;66044;53.142;17.962;2023-11-19T01:44:18;26.90;;;14.00;;
77018;SDS011;66044;53.142;17.962;2023-11-19T01:46:45;26.10;;;13.20;;
77018;SDS011;66044;53.142;17.962;2023-11-19T01:49:16;25.90;;;12.90;;
77018;SDS011;66044;53.142;17.962;2023-11-19T01:51:44;25.40;;;12.80;;
77018;SDS011;66044;53.142;17.962;2023-11-19T01:54:13;23.80;;;12.60;;
77018;SDS011;66044;53.142;17.962;2023-11-19T01:56:41;24.50;;;12.90;;
77018;SDS011;66044;53.142;17.962;2023-11-19T01:59:09;21.00;;;10.40;;
77018;SDS011;66044;53.142;17.962;2023-11-19T02:01:37;26.80;;;13.90;;
77018;SDS011;66044;53.142;17.962;2023-11-19T02:04:06;28.10;;;15.00;;
77018;SDS011;66044;53.142;17.962;2023-11-19T02:06:34;27.70;;;13.50;;
77018;SDS011;66044;53.142;17.962;2023-11-19T02:09:06;27.00;;;11.90;;
77018;SDS011;66044;53.142;17.962;2023-11-19T02:11:34;24.60;;;12.20;;
77018;SDS011;66044;53.142;17.962;2023-11-19T02:14:01;28.10;;;13.50;;
77018;SDS011;66044;53.142;17.962;2023-11-19T02:16:30;23.80;;;12.30;;
77018;SDS011;66044;53.142;17.962;2023-11-19T02:18:56;26.90;;;13.60;;
77018;SDS011;66044;53.142;17.962;2023-11-19T02:21:23;31.50;;;14.60;;
77018;SDS011;66044;53.142;17.962;2023-11-19T02:23:49;27.30;;;13.60;;
77018;SDS011;66044;53.142;17.962;2023-11-19T02:26:18;30.70;;;15.80;;
77018;SDS011;66044;53.142;17.962;2023-11-19T02:28:55;27.00;;;14.50;;
77018;SDS011;66044;53.142;17.962;2023-11-19T02:31:22;24.80;;;13.10;;
77018;SDS011;66044;53.142;17.962;2023-11-19T02:33:49;28.00;;;13.90;;
77018;SDS011;66044;53.142;17.962;2023-11-19T02:36:16;26.20;;;12.20;;
77018;SDS011;66044;53.142;17.962;2023-11-19T02:38:43;26.20;;;13.40;;
77018;SDS011;66044;53.142;17.962;2023-11-19T02:41:09;28.70;;;14.30;;
77018;SDS011;66044;53.142;17.962;2023-11-19T02:43:36;29.20;;;14.60;;
77018;SDS011;66044;53.142;17.962;2023-11-19T02:46:05;25.90;;;12.40;;
77018;SDS011;66044;53.142;17.962;2023-11-19T02:48:35;29.00;;;15.50;;
77018;SDS011;66044;53.142;17.962;2023-11-19T02:51:02;31.80;;;16.50;;
77018;SDS011;66044;53.142;17.962;2023-11-19T02:53:35;28.80;;;14.40;;
77018;SDS011;66044;53.142;17.962;2023-11-19T02:56:06;27.60;;;13.50;;
77018;SDS011;66044;53.142;17.962;2023-11-19T02:58:51;33.20;;;17.20;;
77018;SDS011;66044;53.142;17.962;2023-11-19T03:01:22;27.50;;;14.50;;
77018;SDS011;66044;53.142;17.962;2023-11-19T03:03:59;35.00;;;17.80;;
77018;SDS011;66044;53.142;17.962;2023-11-19T03:06:27;28.50;;;14.00;;
77018;SDS011;66044;53.142;17.962;2023-11-19T03:08:55;22.80;;;12.00;;
77018;SDS011;66044;53.142;17.962;2023-11-19T03:11:22;25.70;;;13.20;;
77018;SDS011;66044;53.142;17.962;2023-11-19T03:13:48;35.50;;;17.10;;
77018;SDS011;66044;53.142;17.962;2023-11-19T03:16:15;26.80;;;14.00;;
77018;SDS011;66044;53.142;17.962;2023-11-19T03:18:42;27.20;;;14.30;;
77018;SDS011;66044;53.142;17.962;2023-11-19T03:21:09;34.10;;;14.80;;
77018;SDS011;66044;53.142;17.962;2023-11-19T03:23:36;30.00;;;14.10;;
77018;SDS011;66044;53.142;17.962;2023-11-19T03:26:03;35.30;;;16.30;;
77018;SDS011;66044;53.142;17.962;2023-11-19T03:28:31;25.50;;;13.60;;
77018;SDS011;66044;53.142;17.962;2023-11-19T03:30:58;26.70;;;11.90;;
77018;SDS011;66044;53.142;17.962;2023-11-19T03:33:25;28.70;;;15.20;;
77018;SDS011;66044;53.142;17.962;2023-11-19T03:35:54;31.50;;;15.20;;
77018;SDS011;66044;53.142;17.962;2023-11-19T03:38:23;30.60;;;15.30;;
77018;SDS011;66044;53.142;17.962;2023-11-19T03:40:51;32.00;;;16.30;;
77018;SDS011;66044;53.142;17.962;2023-11-19T03:43:17;34.70;;;16.20;;
77018;SDS011;66044;53.142;17.962;2023-11-19T03:45:45;26.90;;;12.90;;
77018;SDS011;66044;53.142;17.962;2023-11-19T03:48:12;36.10;;;17.20;;
77018;SDS011;66044;53.142;17.962;2023-11-19T03:50:42;31.60;;;15.00;;
77018;SDS011;66044;53.142;17.962;2023-11-19T03:53:09;29.50;;;15.30;;
77018;SDS011;66044;53.142;17.962;2023-11-19T03:55:35;32.80;;;17.20;;
77018;SDS011;66044;53.142;17.962;2023-11-19T03:58:02;31.40;;;15.30;;
77018;SDS011;66044;53.142;17.962;2023-11-19T04:00:28;31.30;;;14.70;;
77018;SDS011;66044;53.142;17.962;2023-11-19T04:02:55;27.70;;;13.60;;
77018;SDS011;66044;53.142;17.962;2023-11-19T04:05:21;32.00;;;16.60;;
77018;SDS011;66044;53.142;17.962;2023-11-19T04:07:48;30.60;;;14.60;;
77018;SDS011;66044;53.142;17.962;2023-11-19T04:10:14;27.60;;;13.90;;
77018;SDS011;66044;53.142;17.962;2023-11-19T04:12:42;30.00;;;13.80;;
77018;SDS011;66044;53.142;17.962;2023-11-19T04:15:10;26.30;;;12.70;;
77018;SDS011;66044;53.142;17.962;2023-11-19T04:17:37;27.10;;;13.20;;
77018;SDS011;66044;53.142;17.962;2023-11-19T04:20:04;25.80;;;12.60;;
77018;SDS011;66044;53.142;17.962;2023-11-19T04:22:31;25.20;;;11.90;;
77018;SDS011;66044;53.142;17.962;2023-11-19T04:24:58;27.40;;;13.70;;
77018;SDS011;66044;53.142;17.962;2023-11-19T04:27:24;21.40;;;9.40;;
77018;SDS011;66044;53.142;17.962;2023-11-19T04:29:51;25.00;;;12.80;;
77018;SDS011;66044;53.142;17.962;2023-11-19T04:32:18;26.80;;;13.00;;
77018;SDS011;66044;53.142;17.962;2023-11-19T04:34:45;22.50;;;11.70;;
77018;SDS011;66044;53.142;17.962;2023-11-19T04:37:12;27.00;;;13.00;;
77018;SDS011;66044;53.142;17.962;2023-11-19T04:39:38;24.20;;;10.80;;
77018;SDS011;66044;53.142;17.962;2023-11-19T04:42:04;25.30;;;12.40;;
77018;SDS011;66044;53.142;17.962;2023-11-19T04:44:32;27.60;;;13.50;;
77018;SDS011;66044;53.142;17.962;2023-11-19T04:46:59;26.30;;;12.90;;
77018;SDS011;66044;53.142;17.962;2023-11-19T04:49:25;29.20;;;13.70;;
77018;SDS011;66044;53.142;17.962;2023-11-19T04:51:53;24.90;;;13.00;;
77018;SDS011;66044;53.142;17.962;2023-11-19T04:54:20;25.40;;;11.80;;
77018;SDS011;66044;53.142;17.962;2023-11-19T04:56:46;22.20;;;11.10;;
77018;SDS011;66044;53.142;17.962;2023-11-19T04:59:16;25.10;;;12.30;;
77018;SDS011;66044;53.142;17.962;2023-11-19T05:01:46;25.40;;;12.30;;
77018;SDS011;66044;53.142;17.962;2023-11-19T05:04:14;26.80;;;12.10;;
77018;SDS011;66044;53.142;17.962;2023-11-19T05:06:41;24.70;;;12.60;;
77018;SDS011;66044;53.142;17.962;2023-11-19T05:09:07;24.70;;;12.80;;
77018;SDS011;66044;53.142;17.962;2023-11-19T05:11:34;25.10;;;12.40;;
77018;SDS011;66044;53.142;17.962;2023-11-19T05:14:03;26.50;;;11.90;;
77018;SDS011;66044;53.142;17.962;2023-11-19T05:16:30;26.90;;;12.90;;
77018;SDS011;66044;53.142;17.962;2023-11-19T05:18:58;28.20;;;13.80;;
77018;SDS011;66044;53.142;17.962;2023-11-19T05:21:24;31.60;;;14.20;;
77018;SDS011;66044;53.142;17.962;2023-11-19T05:23:50;27.50;;;13.30;;
77018;SDS011;66044;53.142;17.962;2023-11-19T05:26:18;27.30;;;13.70;;
77018;SDS011;66044;53.142;17.962;2023-11-19T05:28:45;25.60;;;12.70;;
77018;SDS011;66044;53.142;17.962;2023-11-19T05:31:12;26.10;;;13.10;;
77018;SDS011;66044;53.142;17.962;2023-11-19T05:33:38;25.90;;;12.40;;
77018;SDS011;66044;53.142;17.962;2023-11-19T05:36:05;27.60;;;14.00;;
77018;SDS011;66044;53.142;17.962;2023-11-19T05:38:36;26.00;;;12.40;;
77018;SDS011;66044;53.142;17.962;2023-11-19T05:41:03;25.20;;;12.50;;
77018;SDS011;66044;53.142;17.962;2023-11-19T05:43:31;28.90;;;14.40;;
77018;SDS011;66044;53.142;17.962;2023-11-19T05:45:58;26.60;;;13.30;;
77018;SDS011;66044;53.142;17.962;2023-11-19T05:48:26;26.00;;;13.10;;
77018;SDS011;66044;53.142;17.962;2023-11-19T05:50:53;25.40;;;12.30;;
77018;SDS011;66044;53.142;17.962;2023-11-19T05:53:21;24.80;;;12.70;;
77018;SDS011;66044;53.142;17.962;2023-11-19T05:55:47;26.50;;;12.60;;
77018;SDS011;66044;53.142;17.962;2023-11-19T05:58:23;23.70;;;12.80;;
77018;SDS011;66044;53.142;17.962;2023-11-19T06:00:52;24.50;;;12.60;;
77018;SDS011;66044;53.142;17.962;2023-11-19T06:03:19;23.90;;;10.80;;
77018;SDS011;66044;53.142;17.962;2023-11-19T06:05:47;24.40;;;12.00;;
77018;SDS011;66044;53.142;17.962;2023-11-19T06:08:17;24.00;;;11.30;;
77018;SDS011;66044;53.142;17.962;2023-11-19T06:10:44;23.00;;;10.40;;
77018;SDS011;66044;53.142;17.962;2023-11-19T06:13:13;21.40;;;10.50;;
77018;SDS011;66044;53.142;17.962;2023-11-19T06:15:41;21.60;;;10.10;;
77018;SDS011;66044;53.142;17.962;2023-11-19T06:18:09;23.80;;;11.90;;
77018;SDS011;66044;53.142;17.962;2023-11-19T06:20:37;19.70;;;9.80;;
77018;SDS011;66044;53.142;17.962;2023-11-19T06:23:04;20.80;;;11.50;;
77018;SDS011;66044;53.142;17.962;2023-11-19T06:25:31;24.70;;;11.70;;
77018;SDS011;66044;53.142;17.962;2023-11-19T06:27:57;22.40;;;10.90;;
77018;SDS011;66044;53.142;17.962;2023-11-19T06:30:24;21.00;;;9.60;;
77018;SDS011;66044;53.142;17.962;2023-11-19T06:32:51;21.50;;;10.90;;
77018;SDS011;66044;53.142;17.962;2023-11-19T06:35:17;19.60;;;10.30;;
77018;SDS011;66044;53.142;17.962;2023-11-19T06:37:43;23.90;;;10.30;;
77018;SDS011;66044;53.142;17.962;2023-11-19T06:40:10;22.70;;;10.90;;
77018;SDS011;66044;53.142;17.962;2023-11-19T06:42:38;23.20;;;11.40;;
77018;SDS011;66044;53.142;17.962;2023-11-19T06:45:06;25.30;;;12.90;;
77018;SDS011;66044;53.142;17.962;2023-11-19T06:47:33;24.30;;;11.90;;
77018;SDS011;66044;53.142;17.962;2023-11-19T06:49:59;22.80;;;10.70;;
77018;SDS011;66044;53.142;17.962;2023-11-19T06:52:26;24.50;;;11.70;;
77018;SDS011;66044;53.142;17.962;2023-11-19T06:54:52;23.50;;;11.30;;
77018;SDS011;66044;53.142;17.962;2023-11-19T06:57:19;22.10;;;10.30;;
77018;SDS011;66044;53.142;17.962;2023-11-19T06:59:46;20.10;;;9.80;;
77018;SDS011;66044;53.142;17.962;2023-11-19T07:02:13;19.40;;;8.60;;
77018;SDS011;66044;53.142;17.962;2023-11-19T07:04:40;19.80;;;10.40;;
77018;SDS011;66044;53.142;17.962;2023-11-19T07:07:07;23.40;;;10.70;;
77018;SDS011;66044;53.142;17.962;2023-11-19T07:09:33;22.30;;;11.00;;
77018;SDS011;66044;53.142;17.962;2023-11-19T07:12:00;19.50;;;9.60;;
77018;SDS011;66044;53.142;17.962;2023-11-19T07:14:27;16.90;;;8.40;;
77018;SDS011;66044;53.142;17.962;2023-11-19T07:16:54;19.10;;;9.30;;
77018;SDS011;66044;53.142;17.962;2023-11-19T07:19:22;20.30;;;9.50;;
77018;SDS011;66044;53.142;17.962;2023-11-19T07:21:50;17.10;;;8.70;;
77018;SDS011;66044;53.142;17.962;2023-11-19T07:24:16;17.30;;;8.70;;
77018;SDS011;66044;53.142;17.962;2023-11-19T07:26:43;19.10;;;8.80;;
77018;SDS011;66044;53.142;17.962;2023-11-19T07:29:10;18.90;;;9.20;;
77018;SDS011;66044;53.142;17.962;2023-11-19T07:31:37;17.20;;;8.80;;
77018;SDS011;66044;53.142;17.962;2023-11-19T07:34:04;18.20;;;7.90;;
77018;SDS011;66044;53.142;17.962;2023-11-19T07:36:32;18.00;;;8.80;;
77018;SDS011;66044;53.142;17.962;2023-11-19T07:38:59;16.40;;;8.40;;
77018;SDS011;66044;53.142;17.962;2023-11-19T07:41:25;19.80;;;9.80;;
77018;SDS011;66044;53.142;17.962;2023-11-19T07:43:52;20.50;;;9.20;;
77018;SDS011;66044;53.142;17.962;2023-11-19T07:46:19;17.60;;;8.60;;
77018;SDS011;66044;53.142;17.962;2023-11-19T07:48:46;19.60;;;9.90;;
77018;SDS011;66044;53.142;17.962;2023-11-19T07:51:15;20.80;;;10.30;;
77018;SDS011;66044;53.142;17.962;2023-11-19T07:53:41;21.30;;;9.70;;
77018;SDS011;66044;53.142;17.962;2023-11-19T07:56:08;17.80;;;9.50;;
77018;SDS011;66044;53.142;17.962;2023-11-19T07:58:35;17.70;;;8.00;;
77018;SDS011;66044;53.142;17.962;2023-11-19T08:01:02;19.70;;;9.40;;
77018;SDS011;66044;53.142;17.962;2023-11-19T08:03:29;18.60;;;9.00;;
77018;SDS011;66044;53.142;17.962;2023-11-19T08:05:56;16.40;;;8.10;;
77018;SDS011;66044;53.142;17.962;2023-11-19T08:08:25;15.90;;;7.40;;
77018;SDS011;66044;53.142;17.962;2023-11-19T08:10:52;18.70;;;8.70;;
77018;SDS011;66044;53.142;17.962;2023-11-19T08:13:19;23.30;;;10.60;;
77018;SDS011;66044;53.142;17.962;2023-11-19T08:15:46;21.10;;;10.60;;
77018;SDS011;66044;53.142;17.962;2023-11-19T08:18:13;19.40;;;9.40;;
77018;SDS011;66044;53.142;17.962;2023-11-19T08:20:39;15.80;;;7.60;;
77018;SDS011;66044;53.142;17.962;2023-11-19T08:23:07;20.10;;;10.00;;
77018;SDS011;66044;53.142;17.962;2023-11-19T08:25:34;19.30;;;9.90;;
77018;SDS011;66044;53.142;17.962;2023-11-19T08:28:01;23.20;;;10.90;;
77018;SDS011;66044;53.142;17.962;2023-11-19T08:30:30;21.50;;;10.60;;
77018;SDS011;66044;53.142;17.962;2023-11-19T08:32:56;20.00;;;10.10;;
77018;SDS011;66044;53.142;17.962;2023-11-19T08:35:24;18.80;;;9.90;;
77018;SDS011;66044;53.142;17.962;2023-11-19T08:37:51;15.70;;;7.40;;
77018;SDS011;66044;53.142;17.962;2023-11-19T08:40:18;19.60;;;9.40;;
77018;SDS011;66044;53.142;17.962;2023-11-19T08:42:46;18.30;;;8.40;;
77018;SDS011;66044;53.142;17.962;2023-11-19T08:45:13;19.00;;;9.50;;
77018;SDS011;66044;53.142;17.962;2023-11-19T08:47:39;19.60;;;9.90;;
77018;SDS011;66044;53.142;17.962;2023-11-19T08:50:06;21.80;;;10.30;;
77018;SDS011;66044;53.142;17.962;2023-11-19T08:52:34;21.20;;;9.80;;
77018;SDS011;66044;53.142;17.962;2023-11-19T08:55:03;21.70;;;10.10;;
77018;SDS011;66044;53.142;17.962;2023-11-19T08:57:31;21.90;;;10.40;;
77018;SDS011;66044;53.142;17.962;2023-11-19T08:59:59;23.10;;;10.90;;
77018;SDS011;66044;53.142;17.962;2023-11-19T09:02:25;18.50;;;9.70;;
77018;SDS011;66044;53.142;17.962;2023-11-19T09:04:52;22.40;;;10.70;;
77018;SDS011;66044;53.142;17.962;2023-11-19T09:07:18;20.50;;;9.20;;
77018;SDS011;66044;53.142;17.962;2023-11-19T09:09:45;20.90;;;11.40;;
77018;SDS011;66044;53.142;17.962;2023-11-19T09:12:12;22.80;;;11.40;;
77018;SDS011;66044;53.142;17.962;2023-11-19T09:14:40;23.60;;;10.90;;
77018;SDS011;66044;53.142;17.962;2023-11-19T09:17:08;25.30;;;12.20;;
77018;SDS011;66044;53.142;17.962;2023-11-19T09:19:35;18.60;;;9.00;;
77018;SDS011;66044;53.142;17.962;2023-11-19T09:22:03;23.90;;;12.10;;
77018;SDS011;66044;53.142;17.962;2023-11-19T09:24:30;18.10;;;8.80;;
77018;SDS011;66044;53.142;17.962;2023-11-19T09:26:56;24.40;;;10.40;;
77018;SDS011;66044;53.142;17.962;2023-11-19T09:29:23;25.50;;;12.70;;
77018;SDS011;66044;53.142;17.962;2023-11-19T09:31:49;22.60;;;11.90;;
77018;SDS011;66044;53.142;17.962;2023-11-19T09:34:16;24.20;;;11.90;;
77018;SDS011;66044;53.142;17.962;2023-11-19T09:36:42;25.90;;;11.80;;
77018;SDS011;66044;53.142;17.962;2023-11-19T09:39:10;23.40;;;11.60;;
77018;SDS011;66044;53.142;17.962;2023-11-19T09:41:37;23.80;;;12.20;;
77018;SDS011;66044;53.142;17.962;2023-11-19T09:44:04;24.60;;;12.60;;
77018;SDS011;66044;53.142;17.962;2023-11-19T09:46:30;21.90;;;11.90;;
77018;SDS011;66044;53.142;17.962;2023-11-19T09:48:57;24.50;;;12.40;;
77018;SDS011;66044;53.142;17.962;2023-11-19T09:51:25;19.50;;;9.10;;
77018;SDS011;66044;53.142;17.962;2023-11-19T09:53:52;21.30;;;10.30;;
77018;SDS011;66044;53.142;17.962;2023-11-19T09:56:18;24.70;;;12.30;;
77018;SDS011;66044;53.142;17.962;2023-11-19T09:58:46;25.50;;;12.60;;
77018;SDS011;66044;53.142;17.962;2023-11-19T10:01:13;28.00;;;14.50;;
77018;SDS011;66044;53.142;17.962;2023-11-19T10:03:40;25.30;;;13.70;;
77018;SDS011;66044;53.142;17.962;2023-11-19T10:06:07;26.60;;;13.30;;
77018;SDS011;66044;53.142;17.962;2023-11-19T10:08:37;27.80;;;12.40;;
77018;SDS011;66044;53.142;17.962;2023-11-19T10:11:07;26.90;;;12.80;;
77018;SDS011;66044;53.142;17.962;2023-11-19T10:13:36;27.70;;;14.30;;
77018;SDS011;66044;53.142;17.962;2023-11-19T10:16:08;24.80;;;12.30;;
77018;SDS011;66044;53.142;17.962;2023-11-19T10:18:37;25.00;;;12.70;;
77018;SDS011;66044;53.142;17.962;2023-11-19T10:21:04;27.20;;;12.80;;
77018;SDS011;66044;53.142;17.962;2023-11-19T10:23:51;21.80;;;11.00;;
77018;SDS011;66044;53.142;17.962;2023-11-19T10:26:19;26.80;;;13.40;;
77018;SDS011;66044;53.142;17.962;2023-11-19T10:28:47;24.30;;;12.10;;
77018;SDS011;66044;53.142;17.962;2023-11-19T10:31:14;27.60;;;13.70;;
77018;SDS011;66044;53.142;17.962;2023-11-19T10:33:41;25.70;;;12.80;;
77018;SDS011;66044;53.142;17.962;2023-11-19T10:36:08;28.50;;;13.60;;
77018;SDS011;66044;53.142;17.962;2023-11-19T10:38:35;26.00;;;12.60;;
77018;SDS011;66044;53.142;17.962;2023-11-19T10:41:02;29.00;;;13.70;;
77018;SDS011;66044;53.142;17.962;2023-11-19T10:43:31;27.10;;;13.50;;
77018;SDS011;66044;53.142;17.962;2023-11-19T10:46:10;26.30;;;13.20;;
77018;SDS011;66044;53.142;17.962;2023-11-19T10:48:38;26.30;;;13.00;;
77018;SDS011;66044;53.142;17.962;2023-11-19T10:51:10;28.60;;;13.30;;
77018;SDS011;66044;53.142;17.962;2023-11-19T10:53:55;31.60;;;14.10;;
77018;SDS011;66044;53.142;17.962;2023-11-19T10:56:32;34.10;;;14.60;;
77018;SDS011;66044;53.142;17.962;2023-11-19T10:59:06;36.20;;;16.30;;
77018;SDS011;66044;53.142;17.962;2023-11-19T11:01:34;32.90;;;14.80;;
77018;SDS011;66044;53.142;17.962;2023-11-19T11:04:12;28.80;;;12.60;;
77018;SDS011;66044;53.142;17.962;2023-11-19T11:06:41;27.30;;;13.20;;
77018;SDS011;66044;53.142;17.962;2023-11-19T11:09:08;34.20;;;14.90;;
77018;SDS011;66044;53.142;17.962;2023-11-19T11:11:40;33.40;;;15.30;;
77018;SDS011;66044;53.142;17.962;2023-11-19T11:14:07;28.90;;;12.10;;
77018;SDS011;66044;53.142;17.962;2023-11-19T11:16:36;35.70;;;15.80;;
77018;SDS011;66044;53.142;17.962;2023-11-19T11:19:09;34.40;;;15.80;;
77018;SDS011;66044;53.142;17.962;2023-11-19T11:21:36;30.20;;;13.90;;
77018;SDS011;66044;53.142;17.962;2023-11-19T11:26:53;29.50;;;14.10;;
77018;SDS011;66044;53.142;17.962;2023-11-19T11:29:35;29.10;;;14.90;;
77018;SDS011;66044;53.142;17.962;2023-11-19T11:35:08;33.70;;;15.20;;
77018;SDS011;66044;53.142;17.962;2023-11-19T11:38:22;31.80;;;14.80;;
77018;SDS011;66044;53.142;17.962;2023-11-19T11:40:43;31.00;;;14.20;;
77018;SDS011;66044;53.142;17.962;2023-11-19T11:43:44;25.50;;;13.40;;
77018;SDS011;66044;53.142;17.962;2023-11-19T11:49:04;26.70;;;12.90;;
77018;SDS011;66044;53.142;17.962;2023-11-19T11:54:11;30.90;;;15.50;;
77018;SDS011;66044;53.142;17.962;2023-11-19T11:57:11;29.90;;;14.50;;
77018;SDS011;66044;53.142;17.962;2023-11-19T12:02:09;34.90;;;15.90;;
77018;SDS011;66044;53.142;17.962;2023-11-19T12:04:36;38.70;;;17.90;;
77018;SDS011;66044;53.142;17.962;2023-11-19T12:07:22;31.00;;;15.20;;
77018;SDS011;66044;53.142;17.962;2023-11-19T12:09:53;30.50;;;13.80;;
77018;SDS011;66044;53.142;17.962;2023-11-19T12:12:33;36.30;;;16.20;;
77018;SDS011;66044;53.142;17.962;2023-11-19T12:15:02;32.90;;;13.60;;
77018;SDS011;66044;53.142;17.962;2023-11-19T12:20:00;35.70;;;15.10;;
77018;SDS011;66044;53.142;17.962;2023-11-19T12:22:27;36.60;;;17.10;;
77018;SDS011;66044;53.142;17.962;2023-11-19T12:24:54;29.80;;;15.30;;
77018;SDS011;66044;53.142;17.962;2023-11-19T12:27:22;29.50;;;13.30;;
77018;SDS011;66044;53.142;17.962;2023-11-19T12:29:49;32.30;;;15.40;;
77018;SDS011;66044;53.142;17.962;2023-11-19T12:32:16;36.80;;;15.40;;
77018;SDS011;66044;53.142;17.962;2023-11-19T12:34:42;33.60;;;15.10;;
77018;SDS011;66044;53.142;17.962;2023-11-19T12:37:10;32.70;;;15.90;;
77018;SDS011;66044;53.142;17.962;2023-11-19T12:39:37;30.50;;;14.70;;
77018;SDS011;66044;53.142;17.962;2023-11-19T12:42:03;31.30;;;15.10;;
77018;SDS011;66044;53.142;17.962;2023-11-19T12:44:30;33.60;;;14.90;;
77018;SDS011;66044;53.142;17.962;2023-11-19T12:47:02;33.50;;;14.60;;
77018;SDS011;66044;53.142;17.962;2023-11-19T12:49:30;33.80;;;16.40;;
77018;SDS011;66044;53.142;17.962;2023-11-19T12:51:57;34.60;;;16.10;;
77018;SDS011;66044;53.142;17.962;2023-11-19T12:54:33;33.00;;;15.20;;
77018;SDS011;66044;53.142;17.962;2023-11-19T12:57:03;26.90;;;13.20;;
77018;SDS011;66044;53.142;17.962;2023-11-19T12:59:55;31.10;;;14.50;;
77018;SDS011;66044;53.142;17.962;2023-11-19T13:02:22;30.40;;;15.30;;
77018;SDS011;66044;53.142;17.962;2023-11-19T13:04:50;32.40;;;15.40;;
77018;SDS011;66044;53.142;17.962;2023-11-19T13:07:20;28.60;;;13.70;;
77018;SDS011;66044;53.142;17.962;2023-11-19T13:09:47;33.10;;;15.40;;
77018;SDS011;66044;53.142;17.962;2023-11-19T13:12:14;28.20;;;14.30;;
77018;SDS011;66044;53.142;17.962;2023-11-19T13:14:43;30.60;;;14.50;;
77018;SDS011;66044;53.142;17.962;2023-11-19T13:17:15;27.30;;;13.00;;
77018;SDS011;66044;53.142;17.962;2023-11-19T13:19:41;30.60;;;14.00;;
77018;SDS011;66044;53.142;17.962;2023-11-19T13:22:08;27.00;;;13.60;;
77018;SDS011;66044;53.142;17.962;2023-11-19T13:24:34;24.10;;;11.80;;
77018;SDS011;66044;53.142;17.962;2023-11-19T13:27:01;30.30;;;14.20;;
77018;SDS011;66044;53.142;17.962;2023-11-19T13:29:28;28.00;;;13.30;;
77018;SDS011;66044;53.142;17.962;2023-11-19T13:31:54;26.80;;;12.70;;
77018;SDS011;66044;53.142;17.962;2023-11-19T13:34:20;27.80;;;12.20;;
77018;SDS011;66044;53.142;17.962;2023-11-19T13:36:47;21.20;;;10.10;;
77018;SDS011;66044;53.142;17.962;2023-11-19T13:39:13;25.10;;;12.40;;
77018;SDS011;66044;53.142;17.962;2023-11-19T13:41:49;28.50;;;13.50;;
77018;SDS011;66044;53.142;17.962;2023-11-19T13:44:16;29.90;;;14.30;;
77018;SDS011;66044;53.142;17.962;2023-11-19T13:46:44;30.00;;;15.10;;
77018;SDS011;66044;53.142;17.962;2023-11-19T13:49:12;29.00;;;14.60;;
77018;SDS011;66044;53.142;17.962;2023-11-19T13:51:38;31.50;;;15.70;;
77018;SDS011;66044;53.142;17.962;2023-11-19T13:54:05;27.70;;;12.20;;
77018;SDS011;66044;53.142;17.962;2023-11-19T13:56:31;26.50;;;13.20;;
77018;SDS011;66044;53.142;17.962;2023-11-19T13:58:57;29.20;;;13.80;;
77018;SDS011;66044;53.142;17.962;2023-11-19T14:01:25;25.30;;;11.70;;
77018;SDS011;66044;53.142;17.962;2023-11-19T14:03:52;29.20;;;13.60;;
77018;SDS011;66044;53.142;17.962;2023-11-19T14:06:19;23.70;;;11.70;;
77018;SDS011;66044;53.142;17.962;2023-11-19T14:11:33;27.10;;;13.10;;
77018;SDS011;66044;53.142;17.962;2023-11-19T14:13:59;23.30;;;11.60;;
77018;SDS011;66044;53.142;17.962;2023-11-19T14:22:17;25.90;;;12.50;;
77018;SDS011;66044;53.142;17.962;2023-11-19T14:24:49;22.80;;;10.60;;
77018;SDS011;66044;53.142;17.962;2023-11-19T14:27:25;24.80;;;10.90;;
77018;SDS011;66044;53.142;17.962;2023-11-19T14:29:55;27.20;;;11.00;;
77018;SDS011;66044;53.142;17.962;2023-11-19T14:32:23;22.80;;;10.00;;
77018;SDS011;66044;53.142;17.962;2023-11-19T14:34:49;24.80;;;11.30;;
77018;SDS011;66044;53.142;17.962;2023-11-19T14:37:16;23.20;;;10.30;;
77018;SDS011;66044;53.142;17.962;2023-11-19T14:39:42;23.70;;;10.80;;
77018;SDS011;66044;53.142;17.962;2023-11-19T14:42:17;23.70;;;11.70;;
77018;SDS011;66044;53.142;17.962;2023-11-19T14:44:43;23.70;;;11.60;;